createdAt,value
2023-04-16T00:00:39.949Z,16.30
2023-04-16T00:03:33.663Z,16.32
2023-04-16T00:06:20.751Z,15.08
2023-04-16T00:09:07.436Z,13.97
2023-04-16T00:11:54.141Z,13.86
2023-04-16T00:14:40.666Z,15.29
2023-04-16T00:17:27.505Z,16.15
2023-04-16T00:20:13.877Z,16.27
2023-04-16T00:23:00.690Z,15.01
2023-04-16T00:25:47.596Z,13.86
2023-04-16T00:28:34.504Z,13.64
2023-04-16T00:31:32.928Z,15.00
2023-04-16T00:34:19.473Z,15.97
2023-04-16T00:37:06.100Z,16.07
2023-04-16T00:39:52.595Z,14.81
2023-04-16T00:42:38.929Z,13.70
2023-04-16T00:45:25.223Z,13.49
2023-04-16T00:48:11.551Z,14.90
2023-04-16T00:50:59.430Z,15.94
2023-04-16T00:53:46.627Z,16.10
2023-04-16T00:56:35.697Z,14.84
2023-04-16T00:59:22.934Z,13.94
2023-04-16T01:02:09.564Z,15.11
2023-04-16T01:04:56.415Z,16.17
2023-04-16T01:07:43.077Z,16.16
2023-04-16T01:10:29.448Z,14.84
2023-04-16T01:13:16.248Z,13.73
2023-04-16T01:16:03.171Z,13.70
2023-04-16T01:18:49.548Z,15.18
2023-04-16T01:21:36.267Z,16.14
2023-04-16T01:24:23.247Z,16.20
2023-04-16T01:27:10.016Z,14.92
2023-04-16T01:29:56.421Z,13.75
2023-04-16T01:32:47.984Z,13.62
2023-04-16T01:35:34.453Z,14.99
2023-04-16T01:38:21.009Z,15.95
2023-04-16T01:41:07.844Z,15.95
2023-04-16T01:43:55.048Z,14.67
2023-04-16T01:46:45.195Z,13.55
2023-04-16T01:49:32.412Z,13.33
2023-04-16T01:52:19.384Z,14.77
2023-04-16T01:55:07.282Z,15.90
2023-04-16T01:57:53.917Z,16.03
2023-04-16T02:00:42.057Z,14.76
2023-04-16T02:03:28.860Z,13.65
2023-04-16T02:06:15.539Z,13.41
2023-04-16T02:09:02.205Z,15.00
2023-04-16T02:11:48.892Z,16.02
2023-04-16T02:14:35.394Z,16.12
2023-04-16T02:17:21.757Z,14.85
2023-04-16T02:20:11.336Z,13.66
2023-04-16T02:23:02.559Z,13.30
2023-04-16T02:25:49.513Z,14.72
2023-04-16T02:28:35.954Z,15.79
2023-04-16T02:31:23.468Z,16.06
2023-04-16T02:34:10.359Z,14.84
2023-04-16T02:36:58.333Z,13.67
2023-04-16T02:39:45.116Z,13.40
2023-04-16T02:42:33.598Z,14.80
2023-04-16T02:45:20.989Z,15.79
2023-04-16T02:48:09.048Z,15.92
2023-04-16T02:50:55.842Z,14.66
2023-04-16T02:53:46.002Z,13.54
2023-04-16T02:56:32.306Z,13.34
2023-04-16T02:59:18.766Z,14.80
2023-04-16T03:02:05.403Z,15.82
2023-04-16T03:04:52.124Z,15.93
2023-04-16T03:07:39.350Z,14.73
2023-04-16T03:10:25.638Z,13.57
2023-04-16T03:13:12.218Z,13.77
2023-04-16T03:15:58.881Z,15.22
2023-04-16T03:18:45.367Z,16.06
2023-04-16T03:21:31.890Z,15.93
2023-04-16T03:24:18.733Z,14.66
2023-04-16T03:27:08.099Z,13.50
2023-04-16T03:29:54.871Z,13.30
2023-04-16T03:32:42.622Z,14.78
2023-04-16T03:35:29.948Z,15.72
2023-04-16T03:38:16.646Z,15.79
2023-04-16T03:41:03.323Z,14.49
2023-04-16T03:43:50.929Z,13.35
2023-04-16T03:46:37.719Z,12.82
2023-04-16T03:49:24.218Z,14.12
2023-04-16T03:52:11.574Z,15.22
2023-04-16T03:54:58.065Z,15.84
2023-04-16T03:57:48.820Z,15.82
2023-04-16T04:00:36.205Z,14.41
2023-04-16T04:03:29.439Z,13.18
2023-04-16T04:06:16.515Z,13.41
2023-04-16T04:09:03.143Z,14.83
2023-04-16T04:11:50.854Z,15.72
2023-04-16T04:14:40.248Z,15.72
2023-04-16T04:17:26.878Z,14.44
2023-04-16T04:20:13.658Z,13.39
2023-04-16T04:23:03.496Z,14.31
2023-04-16T04:25:50.514Z,15.43
2023-04-16T04:28:36.981Z,16.08
2023-04-16T04:31:24.129Z,15.46
2023-04-16T04:34:10.631Z,14.09
2023-04-16T04:36:56.804Z,13.08
2023-04-16T04:39:43.608Z,13.02
2023-04-16T04:42:31.794Z,14.67
2023-04-16T04:45:19.284Z,15.68
2023-04-16T04:48:06.353Z,15.79
2023-04-16T04:50:53.965Z,14.44
2023-04-16T04:53:40.478Z,13.34
2023-04-16T04:56:27.160Z,13.93
2023-04-16T04:59:14.641Z,15.41
2023-04-16T05:02:03.419Z,16.23
2023-04-16T05:04:50.072Z,15.44
2023-04-16T05:07:36.961Z,14.13
2023-04-16T05:10:23.654Z,13.77
2023-04-16T05:13:10.039Z,15.08
2023-04-16T05:15:56.631Z,16.03
2023-04-16T05:18:42.951Z,15.75
2023-04-16T05:21:29.398Z,14.52
2023-04-16T05:24:15.793Z,13.57
2023-04-16T05:27:02.519Z,14.47
2023-04-16T05:29:49.072Z,16.04
2023-04-16T05:32:35.943Z,16.40
2023-04-16T05:35:22.791Z,15.13
2023-04-16T05:38:08.983Z,13.93
2023-04-16T05:40:56.234Z,13.69
2023-04-16T05:43:42.727Z,15.15
2023-04-16T05:46:29.264Z,16.17
2023-04-16T05:49:18.728Z,16.23
2023-04-16T05:52:05.739Z,15.01
2023-04-16T05:54:51.980Z,13.92
2023-04-16T05:57:38.407Z,14.39
2023-04-16T06:00:25.453Z,15.68
2023-04-16T06:03:11.931Z,16.09
2023-04-16T06:05:58.665Z,14.97
2023-04-16T06:08:45.505Z,13.94
2023-04-16T06:11:33.251Z,14.60
2023-04-16T06:14:21.249Z,15.71
2023-04-16T06:17:07.765Z,16.04
2023-04-16T06:19:54.264Z,14.95
2023-04-16T06:22:41.511Z,13.96
2023-04-16T06:25:28.160Z,13.86
2023-04-16T06:28:14.690Z,15.37
2023-04-16T06:31:01.199Z,16.45
2023-04-16T06:33:47.586Z,16.01
2023-04-16T06:36:34.040Z,14.70
2023-04-16T06:39:21.949Z,14.28
2023-04-16T06:42:08.459Z,15.64
2023-04-16T06:44:54.998Z,16.41
2023-04-16T06:47:41.378Z,15.72
2023-04-16T06:50:28.655Z,14.57
2023-04-16T06:53:15.860Z,13.71
2023-04-16T06:56:02.007Z,13.74
2023-04-16T06:58:48.403Z,15.23
2023-04-16T07:01:35.374Z,16.30
2023-04-16T07:04:21.961Z,16.37
2023-04-16T07:07:09.021Z,15.01
2023-04-16T07:09:55.519Z,13.92
2023-04-16T07:12:41.786Z,13.82
2023-04-16T07:15:28.908Z,15.31
2023-04-16T07:18:15.927Z,16.35
2023-04-16T07:21:02.371Z,16.41
2023-04-16T07:23:48.714Z,15.23
2023-04-16T07:26:35.459Z,14.13
2023-04-16T07:29:22.159Z,13.78
2023-04-16T07:32:08.829Z,15.22
2023-04-16T07:34:56.556Z,15.92
2023-04-16T07:37:42.906Z,15.04
2023-04-16T07:40:30.289Z,13.91
2023-04-16T07:43:16.978Z,13.42
2023-04-16T07:46:03.713Z,14.79
2023-04-16T07:48:50.529Z,16.03
2023-04-16T07:51:36.842Z,16.17
2023-04-16T07:54:23.518Z,14.96
2023-04-16T07:57:11.602Z,13.93
2023-04-16T07:59:58.407Z,13.76
2023-04-16T08:02:45.228Z,15.12
2023-04-16T08:05:31.708Z,16.12
2023-04-16T08:08:18.291Z,15.36
2023-04-16T08:11:04.840Z,14.17
2023-04-16T08:13:51.059Z,14.36
2023-04-16T08:16:38.848Z,15.61
2023-04-16T08:19:25.324Z,16.08
2023-04-16T08:22:12.926Z,15.08
2023-04-16T08:24:59.571Z,14.27
2023-04-16T08:27:46.095Z,15.43
2023-04-16T08:30:32.731Z,16.64
2023-04-16T08:33:19.240Z,16.37
2023-04-16T08:36:06.022Z,15.15
2023-04-16T08:38:52.832Z,14.28
2023-04-16T08:41:46.268Z,14.31
2023-04-16T08:44:35.355Z,15.97
2023-04-16T08:47:25.192Z,17.02
2023-04-16T08:50:15.263Z,17.07
2023-04-16T08:53:08.410Z,15.87
2023-04-16T08:55:59.792Z,14.79
2023-04-16T08:58:48.829Z,14.25
2023-04-16T09:01:36.115Z,15.43
2023-04-16T09:04:24.883Z,16.83
2023-04-16T09:07:12.143Z,16.99
2023-04-16T09:10:00.451Z,15.83
2023-04-16T09:12:46.979Z,14.82
2023-04-16T09:15:35.473Z,15.45
2023-04-16T09:18:21.812Z,16.59
2023-04-16T09:21:13.821Z,16.16
2023-04-16T09:24:01.653Z,14.99
2023-04-16T09:26:52.742Z,14.21
2023-04-16T09:29:41.724Z,14.29
2023-04-16T09:32:29.023Z,15.91
2023-04-16T09:35:18.913Z,16.96
2023-04-16T09:38:05.806Z,16.40
2023-04-16T09:41:08.827Z,15.27
2023-04-16T09:44:05.061Z,15.06
2023-04-16T09:46:51.827Z,16.49
2023-04-16T09:49:44.603Z,16.92
2023-04-16T09:52:31.445Z,15.85
2023-04-16T09:55:23.805Z,14.88
2023-04-16T09:58:10.596Z,15.46
2023-04-16T10:01:02.347Z,16.82
2023-04-16T10:03:51.071Z,16.42
2023-04-16T10:06:38.233Z,15.41
2023-04-16T10:09:24.836Z,14.67
2023-04-16T10:12:12.925Z,14.79
2023-04-16T10:14:59.328Z,16.44
2023-04-16T10:17:46.892Z,17.09
2023-04-16T10:20:34.212Z,16.19
2023-04-16T10:23:22.072Z,15.28
2023-04-16T10:26:09.054Z,14.96
2023-04-16T10:28:56.400Z,16.29
2023-04-16T10:31:43.342Z,17.01
2023-04-16T10:34:31.539Z,16.19
2023-04-16T10:37:18.775Z,15.27
2023-04-16T10:40:23.547Z,15.14
2023-04-16T10:43:18.041Z,16.65
2023-04-16T10:46:26.599Z,17.01
2023-04-16T10:49:19.311Z,15.70
2023-04-16T10:52:13.793Z,14.80
2023-04-16T10:55:01.273Z,14.81
2023-04-16T10:57:50.031Z,16.40
2023-04-16T11:00:50.511Z,17.20
2023-04-16T11:03:37.122Z,16.15
2023-04-16T11:06:26.585Z,15.28
2023-04-16T11:09:46.564Z,14.71
2023-04-16T11:12:38.216Z,15.96
2023-04-16T11:15:30.942Z,17.17
2023-04-16T11:18:20.588Z,16.55
2023-04-16T11:21:12.398Z,15.57
2023-04-16T11:23:58.994Z,14.81
2023-04-16T11:26:45.462Z,14.84
2023-04-16T11:29:31.836Z,16.58
2023-04-16T11:32:22.826Z,17.49
2023-04-16T11:35:17.964Z,16.71
2023-04-16T11:38:07.191Z,15.90
2023-04-16T11:40:54.326Z,15.41
2023-04-16T11:43:41.038Z,15.13
2023-04-16T11:46:40.605Z,16.16
2023-04-16T11:49:30.718Z,17.66
2023-04-16T11:52:27.322Z,16.96
2023-04-16T11:55:14.158Z,15.82
2023-04-16T11:58:12.294Z,15.06
2023-04-16T12:01:00.497Z,14.83
2023-04-16T12:03:49.657Z,16.35
2023-04-16T12:06:36.701Z,17.01
2023-04-16T12:09:25.101Z,15.93
2023-04-16T12:12:31.587Z,14.84
2023-04-16T12:15:18.457Z,14.43
2023-04-16T12:18:08.446Z,15.81
2023-04-16T12:20:54.837Z,16.54
2023-04-16T12:23:42.674Z,15.58
2023-04-16T12:26:40.140Z,14.65
2023-04-16T12:29:28.076Z,13.94
2023-04-16T12:32:23.422Z,14.08
2023-04-16T12:35:13.296Z,15.82
2023-04-16T12:38:00.544Z,16.89
2023-04-16T12:40:47.361Z,17.08
2023-04-16T12:43:33.967Z,15.95
2023-04-16T12:46:20.334Z,14.96
2023-04-16T12:49:08.899Z,14.32
2023-04-16T12:51:55.956Z,14.35
2023-04-16T12:54:42.497Z,16.02
2023-04-16T12:57:29.054Z,16.73
2023-04-16T13:00:16.394Z,15.78
2023-04-16T13:03:03.054Z,14.86
2023-04-16T13:05:49.806Z,14.21
2023-04-16T13:08:37.445Z,14.35
2023-04-16T13:11:24.210Z,16.10
2023-04-16T13:14:11.065Z,16.80
2023-04-16T13:16:57.355Z,15.85
2023-04-16T13:19:43.733Z,14.85
2023-04-16T13:22:30.733Z,14.15
2023-04-16T13:25:17.495Z,14.33
2023-04-16T13:28:04.330Z,16.07
2023-04-16T13:30:50.982Z,16.62
2023-04-16T13:33:38.302Z,15.68
2023-04-16T13:36:27.426Z,14.73
2023-04-16T13:39:15.724Z,14.09
2023-04-16T13:42:02.722Z,14.30
2023-04-16T13:44:53.175Z,15.95
2023-04-16T13:47:43.449Z,16.64
2023-04-16T13:50:30.419Z,15.63
2023-04-16T13:53:16.900Z,14.65
2023-04-16T13:56:07.317Z,14.05
2023-04-16T13:58:53.741Z,15.24
2023-04-16T14:01:40.328Z,16.49
2023-04-16T14:04:26.550Z,16.36
2023-04-16T14:07:12.987Z,15.11
2023-04-16T14:09:59.607Z,14.16
2023-04-16T14:12:46.367Z,13.99
2023-04-16T14:15:33.188Z,15.54
2023-04-16T14:18:19.510Z,16.66
2023-04-16T14:21:06.022Z,16.21
2023-04-16T14:23:52.337Z,15.07
2023-04-16T14:26:38.791Z,14.22
2023-04-16T14:29:25.843Z,13.86
2023-04-16T14:32:12.570Z,15.32
2023-04-16T14:34:59.126Z,16.25
2023-04-16T14:37:46.689Z,15.31
2023-04-16T14:40:34.282Z,14.25
2023-04-16T14:43:20.750Z,14.23
2023-04-16T14:46:07.254Z,15.78
2023-04-16T14:48:53.704Z,16.18
2023-04-16T14:51:41.336Z,15.20
2023-04-16T14:54:28.374Z,14.17
2023-04-16T14:57:14.668Z,13.51
2023-04-16T15:00:01.294Z,14.15
2023-04-16T15:02:48.391Z,15.87
2023-04-16T15:05:35.810Z,16.39
2023-04-16T15:08:24.013Z,15.32
2023-04-16T15:11:11.024Z,14.30
2023-04-16T15:13:57.540Z,13.63
2023-04-16T15:16:46.157Z,13.64
2023-04-16T15:19:32.916Z,15.27
2023-04-16T15:22:19.633Z,16.00
2023-04-16T15:25:06.762Z,14.93
2023-04-16T15:27:53.239Z,13.87
2023-04-16T15:30:41.432Z,13.25
2023-04-16T15:33:28.327Z,13.45
2023-04-16T15:36:14.833Z,15.18
2023-04-16T15:39:01.545Z,15.94
2023-04-16T15:42:00.626Z,14.95
2023-04-16T15:44:48.112Z,13.85
2023-04-16T15:47:36.388Z,13.42
2023-04-16T15:50:23.191Z,14.85
2023-04-16T15:53:09.816Z,15.58
2023-04-16T15:55:56.598Z,14.75
2023-04-16T15:58:43.078Z,13.78
2023-04-16T16:01:29.896Z,13.10
2023-04-16T16:04:26.744Z,13.36
2023-04-16T16:07:15.520Z,15.07
2023-04-16T16:10:02.590Z,15.98
2023-04-16T16:12:49.483Z,15.21
2023-04-16T16:15:36.329Z,14.17
2023-04-16T16:18:22.752Z,13.40
2023-04-16T16:21:09.120Z,13.46
2023-04-16T16:23:55.511Z,15.18
2023-04-16T16:26:42.403Z,15.79
2023-04-16T16:29:28.608Z,14.82
2023-04-16T16:32:16.518Z,13.84
2023-04-16T16:35:03.014Z,13.14
2023-04-16T16:37:55.369Z,13.42
2023-04-16T16:40:42.008Z,15.10
2023-04-16T16:43:28.331Z,15.88
2023-04-16T16:46:14.957Z,14.85
2023-04-16T16:49:01.646Z,13.80
2023-04-16T16:51:48.765Z,13.03
2023-04-16T16:54:35.472Z,13.04
2023-04-16T16:57:21.849Z,14.66
2023-04-16T17:00:12.260Z,15.79
2023-04-16T17:02:58.695Z,15.54
2023-04-16T17:05:45.359Z,14.26
2023-04-16T17:08:31.729Z,13.35
2023-04-16T17:11:18.284Z,12.73
2023-04-16T17:14:05.007Z,12.82
2023-04-16T17:16:51.713Z,14.47
2023-04-16T17:19:38.469Z,15.70
2023-04-16T17:22:25.076Z,15.50
2023-04-16T17:25:11.965Z,14.29
2023-04-16T17:27:58.755Z,13.36
2023-04-16T17:30:46.237Z,12.75
2023-04-16T17:33:32.866Z,13.29
2023-04-16T17:36:21.365Z,14.98
2023-04-16T17:39:07.997Z,15.59
2023-04-16T17:41:58.375Z,14.49
2023-04-16T17:44:45.320Z,13.42
2023-04-16T17:47:31.621Z,12.71
2023-04-16T17:50:18.764Z,12.81
2023-04-16T17:53:05.423Z,14.44
2023-04-16T17:55:55.190Z,15.67
2023-04-16T17:58:43.334Z,15.86
2023-04-16T18:01:30.312Z,14.59
2023-04-16T18:04:17.421Z,13.41
2023-04-16T18:07:04.303Z,12.65
2023-04-16T18:09:51.109Z,12.62
2023-04-16T18:12:37.658Z,14.29
2023-04-16T18:15:24.713Z,14.97
2023-04-16T18:18:11.196Z,14.06
2023-04-16T18:20:57.621Z,13.05
2023-04-16T18:23:44.991Z,12.77
2023-04-16T18:26:33.724Z,14.23
2023-04-16T18:29:25.008Z,15.44
2023-04-16T18:32:12.477Z,14.95
2023-04-16T18:34:59.510Z,13.71
2023-04-16T18:37:46.798Z,12.78
2023-04-16T18:40:37.334Z,12.66
2023-04-16T18:43:24.040Z,14.18
2023-04-16T18:46:10.705Z,15.33
2023-04-16T18:48:59.090Z,14.99
2023-04-16T18:51:45.760Z,13.64
2023-04-16T18:54:32.208Z,12.66
2023-04-16T18:57:18.559Z,12.42
2023-04-16T19:00:12.674Z,13.90
2023-04-16T19:02:59.413Z,14.60
2023-04-16T19:05:45.677Z,13.54
2023-04-16T19:08:32.156Z,12.54
2023-04-16T19:11:18.729Z,11.86
2023-04-16T19:14:05.956Z,12.69
2023-04-16T19:16:52.414Z,14.08
2023-04-16T19:19:38.943Z,14.08
2023-04-16T19:22:25.677Z,12.93
2023-04-16T19:25:12.005Z,12.03
2023-04-16T19:27:58.915Z,12.79
2023-04-16T19:30:46.768Z,14.36
2023-04-16T19:33:32.980Z,14.68
2023-04-16T19:36:19.077Z,13.45
2023-04-16T19:39:06.413Z,12.33
2023-04-16T19:41:52.588Z,11.64
2023-04-16T19:44:39.385Z,12.07
2023-04-16T19:47:25.778Z,13.89
2023-04-16T19:50:12.262Z,14.65
2023-04-16T19:52:58.696Z,13.55
2023-04-16T19:55:46.910Z,12.56
2023-04-16T19:58:33.791Z,11.82
2023-04-16T20:01:20.075Z,11.28
2023-04-16T20:04:07.310Z,12.20
2023-04-16T20:06:53.863Z,13.87
2023-04-16T20:09:40.538Z,13.89
2023-04-16T20:12:27.470Z,12.73
2023-04-16T20:15:14.007Z,11.83
2023-04-16T20:18:00.370Z,11.20
2023-04-16T20:20:47.486Z,11.67
2023-04-16T20:23:33.898Z,13.48
2023-04-16T20:26:20.586Z,14.05
2023-04-16T20:29:07.357Z,12.92
2023-04-16T20:31:53.558Z,11.91
2023-04-16T20:34:40.596Z,11.26
2023-04-16T20:37:29.118Z,12.13
2023-04-16T20:40:16.451Z,13.78
2023-04-16T20:43:03.065Z,14.23
2023-04-16T20:45:50.178Z,13.15
2023-04-16T20:48:38.546Z,12.15
2023-04-16T20:51:24.596Z,11.50
2023-04-16T20:54:11.219Z,12.59
2023-04-16T20:56:58.190Z,14.12
2023-04-16T20:59:44.727Z,14.05
2023-04-16T21:02:31.592Z,12.88
2023-04-16T21:05:21.346Z,11.96
2023-04-16T21:08:07.852Z,11.41
2023-04-16T21:10:54.448Z,12.65
2023-04-16T21:13:41.058Z,13.89
2023-04-16T21:16:27.586Z,13.15
2023-04-16T21:19:14.080Z,12.09
2023-04-16T21:22:02.709Z,11.35
2023-04-16T21:24:49.280Z,12.21
2023-04-16T21:27:35.783Z,13.51
2023-04-16T21:30:22.738Z,12.92
2023-04-16T21:33:09.528Z,11.91
2023-04-16T21:35:55.836Z,11.14
2023-04-16T21:38:42.649Z,11.22
2023-04-16T21:41:29.131Z,12.97
2023-04-16T21:44:15.522Z,13.98
2023-04-16T21:47:02.330Z,13.18
2023-04-16T21:49:49.109Z,12.06
2023-04-16T21:52:40.333Z,11.31
2023-04-16T21:55:27.202Z,11.95
2023-04-16T21:58:13.695Z,13.56
2023-04-16T22:01:00.245Z,13.99
2023-04-16T22:03:50.842Z,12.86
2023-04-16T22:06:37.738Z,11.90
2023-04-16T22:09:27.169Z,11.18
2023-04-16T22:12:13.944Z,10.98
2023-04-16T22:15:02.711Z,12.66
2023-04-16T22:17:50.137Z,13.83
2023-04-16T22:20:39.233Z,13.09
2023-04-16T22:23:26.402Z,11.99
2023-04-16T22:26:13.305Z,11.16
2023-04-16T22:28:59.781Z,11.48
2023-04-16T22:31:46.978Z,13.14
2023-04-16T22:34:33.367Z,13.62
2023-04-16T22:37:20.020Z,12.58
2023-04-16T22:40:11.430Z,11.60
2023-04-16T22:42:57.978Z,10.89
2023-04-16T22:45:46.157Z,10.85
2023-04-16T22:48:36.169Z,12.61
2023-04-16T22:51:24.566Z,13.95
2023-04-16T22:54:13.636Z,14.28
2023-04-16T22:57:01.037Z,13.11
2023-04-16T22:59:47.416Z,12.12
2023-04-16T23:02:34.019Z,11.38
2023-04-16T23:05:20.789Z,10.84
2023-04-16T23:08:07.524Z,11.04
2023-04-16T23:10:53.804Z,12.86
2023-04-16T23:13:40.287Z,14.11
2023-04-16T23:16:27.929Z,13.64
2023-04-16T23:19:15.687Z,12.42
2023-04-16T23:22:02.101Z,11.51
2023-04-16T23:24:48.523Z,10.86
2023-04-16T23:27:36.550Z,11.04
2023-04-16T23:30:23.061Z,12.84
2023-04-16T23:33:09.403Z,14.08
2023-04-16T23:35:56.022Z,13.72
2023-04-16T23:38:42.619Z,12.47
2023-04-16T23:41:29.254Z,11.53
2023-04-16T23:44:16.480Z,11.12
2023-04-16T23:47:02.963Z,12.62
2023-04-16T23:49:49.489Z,13.64
2023-04-16T23:52:36.855Z,12.80
2023-04-16T23:55:23.845Z,11.74
2023-04-16T23:58:10.345Z,11.00
